This is the latest recevied weather packets stored in our database for station/object KI5RAB. If no packets are shown the sender has not sent any weather packets the latest 10 day(s).
| Time | Temp. | Humidity | Pressure | Rain* | Wind** | Luminosity | Snow |
|---|---|---|---|---|---|---|---|
| 1788631405 | 34.44° C | 54% | 1017.3 hPa | 0 mm | - | 205 W/m² | - |
| 1788631100 | 33.89° C | 55% | 1017.5 hPa | 0 mm | - | 762 W/m² | - |
| 1788630794 | 33.33° C | 58% | 1017.4 hPa | 0 mm | - | 773 W/m² | - |
| 1788630489 | 33.33° C | 60% | 1017.5 hPa | 0 mm | - | 737 W/m² | - |
| 1788630185 | 33.33° C | 59% | 1017.8 hPa | 0 mm | - | 732 W/m² | - |
| 1788629881 | 32.78° C | 61% | 1017.5 hPa | 0 mm | - | 732 W/m² | - |
| 1788629577 | 32.22° C | 61% | 1017.7 hPa | 0 mm | - | 702 W/m² | - |
| 1788629276 | 32.78° C | 61% | 1017.6 hPa | 0 mm | - | 738 W/m² | - |
| 1788628974 | 32.22° C | 65% | 1017.7 hPa | 0 mm | - | 726 W/m² | - |
| 1788628671 | 33.33° C | 62% | 1017.8 hPa | 0 mm | - | 129 W/m² | - |
| 1788628367 | 33.89° C | 61% | 1017.8 hPa | 0 mm | - | 701 W/m² | - |
| 1788628063 | 33.89° C | 62% | 1017.9 hPa | 0 mm | - | 680 W/m² | - |
| 1788627759 | 32.78° C | 64% | 1018.1 hPa | 0 mm | - | 717 W/m² | - |
| 1788627458 | 32.78° C | 62% | 1018 hPa | 0 mm | - | 673 W/m² | - |
| 1788627154 | 32.78° C | 64% | 1018.1 hPa | 0 mm | - | 673 W/m² | - |
| 1788626853 | 32.78° C | 64% | 1018.2 hPa | 0 mm | - | 679 W/m² | - |
| 1788626548 | 32.22° C | 65% | 1018.3 hPa | 0 mm | - | 524 W/m² | - |
| 1788626244 | 31.67° C | 69% | 1018.2 hPa | 0 mm | - | 619 W/m² | - |
| 1788625972 | 31.11° C | 69% | 1018.2 hPa | 0 mm | - | 262 W/m² | - |
| 1788625636 | 30.56° C | 71% | 1018.2 hPa | 0 mm | - | 562 W/m² | - |
| 1788625336 | 31.11° C | 71% | 1018.2 hPa | 0 mm | - | 185 W/m² | - |
| 1788625031 | 31.67° C | 70% | 1018.2 hPa | 0 mm | - | 170 W/m² | - |
| 1788624729 | 31.67° C | 69% | 1018.1 hPa | 0 mm | - | 650 W/m² | - |
| 1788624422 | 31.67° C | 72% | 1018.3 hPa | 0 mm | - | 675 W/m² | - |
| 1788624121 | 31.11° C | 72% | 1018.3 hPa | 0 mm | - | 668 W/m² | - |
* Rain latest hour (hover to see other rain measurements)
** Current wind speed in m/s (hover to see current wind gust speed)